South Indian Lake, Canada
Current Conditions -  °F | °C
As of 2:00 AM on Thursday 18 Dec 2014 (Local Time) from CYTH Reporting Station
Light Snow Light Snow  
Wind Chill: -1°   Ceiling: 800
Heat Index:   Visibility: 15mi
Dew Point:   Wind: 6mph
Humidity: 85%   Direction: 190°S
Pressure: 30.1"   Gusts: NA
Location:  56.78°N, 98.93°W
Report Text: CYTH 180800Z 19005KT 15SM -SN OVC008 M13/M15 A3010 RMK ST8 SLP214
Loading
Personal Weather Stations






























Interactive Weather Map New forecast layout! Learn more

10-Day Weather Forecast

Advertisements
Track Severe Weather on mobile